Terminal Aerodrome Forecast
Issued by NWS

Home | Current Version | Previous Version | Text Only | Print | Product List | Glossary On
Versions: 1 2 3 4 5 6 7 8 9 10 11 12 13
804
FTUS43 KSGF 212320
TAFBBG
TAF
KBBG 212320Z 2200/2224 VRB04KT P6SM SCT050
     FM221300 24007KT P6SM VCTS SCT050CB BKN250
     FM221500 27010G18KT P6SM -SHRA VCTS OVC050CB=

USA.gov is the U.S. government's official web portal to all federal, state and local government web resources and services.